Time;durP1;ratioP1;P1;durP2;ratioP2;P2;SDS_P1;SDS_P2;PMS_P1;PMS_P2;Temp;Humidity;BMP_temperature;BMP_pressure;BME280_temperature;BME280_humidity;BME280_pressure;Samples;Min_cycle;Max_cycle;Signal;HPM_P1;HPM_P2
2023/10/22 00:02:25;;;;;;;;;1.50;1.50;;;;;14.22;76.10;99694.69;5099444;27;45469;-74
2023/10/22 00:04:50;;;;;;;;;2.75;2.75;;;;;14.30;75.85;99707.91;5099279;27;47453;-75
2023/10/22 00:07:16;;;;;;;;;2.25;0.75;;;;;14.41;76.08;99727.09;5099604;27;45363;-75
2023/10/22 00:09:41;;;;;;;;;5.50;1.00;;;;;14.51;76.09;99741.00;5099358;27;46410;-74
2023/10/22 00:12:07;;;;;;;;;4.25;2.50;;;;;14.39;75.62;99718.44;5099206;27;45450;-75
2023/10/22 00:14:33;;;;;;;;;4.25;2.25;;;;;14.49;75.20;99748.41;5099550;27;45339;-75
2023/10/22 00:16:59;;;;;;;;;5.25;2.25;;;;;14.46;75.48;99740.78;5099621;27;45272;-75
2023/10/22 00:19:24;;;;;;;;;0.50;0.50;;;;;14.31;74.98;99711.41;5098926;27;46347;-75
2023/10/22 00:21:49;;;;;;;;;3.25;1.25;;;;;14.46;75.36;99752.28;5099091;27;45360;-74
2023/10/22 00:24:15;;;;;;;;;3.00;2.00;;;;;14.40;75.06;99736.97;5080840;27;45384;-74
2023/10/22 00:26:40;;;;;;;;;3.00;3.00;;;;;14.45;74.94;99757.84;5080891;27;45532;-76
2023/10/22 00:29:06;;;;;;;;;3.00;1.67;;;;;14.42;75.04;99753.69;5099044;27;46991;-76
2023/10/22 00:31:31;;;;;;;;;4.00;0.50;;;;;14.42;74.95;99769.72;5080661;27;45274;-75
2023/10/22 00:33:57;;;;;;;;;1.75;0.75;;;;;14.43;75.22;99765.19;5099094;27;45399;-75
2023/10/22 00:36:24;;;;;;;;;1.50;1.00;;;;;14.08;75.46;99719.63;5099067;27;45553;-74
2023/10/22 00:38:50;;;;;;;;;1.75;0.75;;;;;14.40;74.78;99776.25;5098617;27;46698;-75
2023/10/22 00:41:15;;;;;;;;;2.25;1.75;;;;;14.12;75.42;99736.94;5098445;27;45457;-78
2023/10/22 00:43:41;;;;;;;;;5.25;2.25;;;;;14.41;75.01;99780.59;5098846;27;45470;-75
2023/10/22 00:46:06;;;;;;;;;4.33;2.33;;;;;14.30;74.83;99758.72;5099239;27;45291;-75
2023/10/22 00:48:32;;;;;;;;;3.25;0.50;;;;;14.35;74.62;99768.00;5098572;27;46052;-75
2023/10/22 00:50:57;;;;;;;;;3.25;0.50;;;;;14.37;74.77;99780.16;5098906;27;45427;-73
2023/10/22 00:53:27;;;;;;;;;4.67;1.67;;;;;14.04;74.69;99720.22;5098753;27;46103;-74
2023/10/22 00:55:53;;;;;;;;;3.67;3.67;;;;;14.24;74.31;99764.00;5063588;27;45516;-73
2023/10/22 00:58:20;;;;;;;;;6.25;2.25;;;;;14.35;74.93;99776.00;5078978;27;47943;-74
2023/10/22 01:00:46;;;;;;;;;3.25;3.25;;;;;14.40;74.46;99773.59;5080263;27;46093;-74
2023/10/22 01:03:11;;;;;;;;;3.33;3.00;;;;;14.46;73.94;99788.91;5080235;27;45394;-74
2023/10/22 01:05:37;;;;;;;;;5.50;1.50;;;;;14.39;74.07;99782.63;5098654;27;45268;-74
2023/10/22 01:08:05;;;;;;;;;4.25;1.75;;;;;14.12;74.10;99746.81;5098342;27;45866;-74
2023/10/22 01:10:31;;;;;;;;;0.75;0.75;;;;;14.14;74.39;99745.59;5098416;27;45491;-74
2023/10/22 01:12:57;;;;;;;;;3.75;1.50;;;;;14.40;74.34;99794.97;5080103;27;45296;-74
2023/10/22 01:15:22;;;;;;;;;3.25;1.75;;;;;14.44;74.35;99801.66;5080239;27;45234;-75
2023/10/22 01:17:47;;;;;;;;;3.33;2.33;;;;;14.45;74.01;99805.97;5098149;27;46775;-74
2023/10/22 01:20:13;;;;;;;;;3.00;2.25;;;;;14.43;74.08;99808.00;5098226;27;45310;-74
2023/10/22 01:22:39;;;;;;;;;2.75;2.75;;;;;14.35;73.76;99824.97;5098182;27;45338;-74
2023/10/22 01:25:05;;;;;;;;;2.75;2.50;;;;;14.30;74.21;99812.19;5079978;27;45574;-74
2023/10/22 01:27:32;;;;;;;;;0.75;0.50;;;;;14.32;73.95;99828.84;5097894;27;46969;-76
2023/10/22 01:29:58;;;;;;;;;2.00;2.00;;;;;14.35;73.71;99818.78;5079623;27;46042;-75
2023/10/22 01:32:23;;;;;;;;;2.25;0.50;;;;;14.38;73.64;99826.44;5098309;27;45401;-75
2023/10/22 01:34:49;;;;;;;;;4.25;1.75;;;;;14.34;73.67;99817.97;5098330;27;45608;-76
2023/10/22 01:37:15;;;;;;;;;3.75;1.00;;;;;14.15;73.66;99786.50;5097573;27;45962;-75
2023/10/22 01:39:40;;;;;;;;;3.00;1.75;;;;;14.03;73.51;99780.88;5097665;27;50051;-75
2023/10/22 01:42:05;;;;;;;;;1.00;0.50;;;;;14.24;73.75;99810.28;5097906;27;45249;-75
2023/10/22 01:44:31;;;;;;;;;3.75;2.00;;;;;13.67;73.17;99728.28;5080491;27;45254;-74
2023/10/22 01:46:56;;;;;;;;;3.00;2.00;;;;;14.24;73.75;99838.84;5079122;27;47395;-75
2023/10/22 01:49:21;;;;;;;;;1.50;0.50;;;;;14.24;73.53;99826.31;5097842;27;45383;-75
2023/10/22 01:51:48;;;;;;;;;4.75;3.00;;;;;14.13;73.21;99812.63;5097878;27;45291;-74
2023/10/22 01:54:14;;;;;;;;;2.75;1.50;;;;;14.24;73.56;99834.34;5098078;27;45474;-74
2023/10/22 01:56:39;;;;;;;;;2.00;2.00;;;;;14.27;73.71;99828.59;5078970;27;47536;-74
2023/10/22 01:59:05;;;;;;;;;2.25;0.75;;;;;14.27;73.26;99831.28;5097621;27;55074;-75
2023/10/22 02:01:31;;;;;;;;;4.75;3.50;;;;;14.30;73.01;99838.91;5079501;27;46126;-75
2023/10/22 02:03:57;;;;;;;;;4.00;2.50;;;;;14.28;73.17;99843.63;5097909;27;45491;-76
2023/10/22 02:06:22;;;;;;;;;5.00;1.50;;;;;14.14;73.33;99825.78;5097639;27;46506;-75
2023/10/22 02:08:47;;;;;;;;;1.00;1.00;;;;;14.20;73.24;99830.38;5097919;27;45447;-76
2023/10/22 02:11:13;;;;;;;;;3.50;1.75;;;;;14.21;73.19;99836.53;5100603;27;45330;-76
2023/10/22 02:13:38;;;;;;;;;1.50;1.50;;;;;14.25;73.24;99848.53;5101642;27;45390;-76
2023/10/22 02:16:03;;;;;;;;;2.50;1.50;;;;;14.21;73.12;99850.72;5101199;27;46560;-74
2023/10/22 02:18:29;;;;;;;;;1.25;1.00;;;;;14.17;73.26;99840.63;5101245;27;45467;-75
2023/10/22 02:20:57;;;;;;;;;1.75;1.75;;;;;14.20;73.47;99858.94;5082712;27;45368;-75
2023/10/22 02:23:23;;;;;;;;;3.00;2.00;;;;;14.20;73.51;99845.56;5101508;27;45254;-75
2023/10/22 02:25:49;;;;;;;;;2.75;1.50;;;;;14.23;72.39;99863.94;5100707;27;45699;-75
2023/10/22 02:28:15;;;;;;;;;2.25;1.25;;;;;14.14;72.88;99851.69;5082458;27;45417;-74
2023/10/22 02:30:41;;;;;;;;;2.00;1.00;;;;;14.18;72.96;99859.13;5100938;27;45500;-76
2023/10/22 02:33:07;;;;;;;;;3.25;2.00;;;;;14.21;73.14;99869.44;5101269;27;45415;-75
2023/10/22 02:35:37;;;;;;;;;2.50;2.50;;;;;14.17;73.18;99870.84;5100990;27;45739;-76
2023/10/22 02:38:03;;;;;;;;;4.50;3.75;;;;;14.20;73.10;99877.66;5100902;27;45482;-76
2023/10/22 02:40:28;;;;;;;;;0.75;0.75;;;;;14.09;73.35;99857.59;5082397;27;45564;-75
2023/10/22 02:42:53;;;;;;;;;1.75;1.75;;;;;14.07;73.36;99872.19;5101202;27;45516;-76
2023/10/22 02:45:18;;;;;;;;;2.25;2.00;;;;;14.12;73.64;99881.28;5100288;27;47996;-76
2023/10/22 02:47:44;;;;;;;;;3.50;2.00;;;;;14.13;73.46;99887.44;5100798;27;45565;-75
2023/10/22 02:50:09;;;;;;;;;3.25;3.25;;;;;14.07;73.50;99880.19;5100593;27;45268;-75
2023/10/22 02:52:34;;;;;;;;;5.00;1.75;;;;;14.14;73.75;99895.28;5100910;27;45532;-74
2023/10/22 02:55:00;;;;;;;;;3.75;2.75;;;;;14.16;73.50;99897.75;5082136;27;48621;-75
2023/10/22 02:57:25;;;;;;;;;1.25;1.25;;;;;14.18;73.20;99896.56;5082032;27;45349;-74
2023/10/22 02:59:50;;;;;;;;;2.50;1.50;;;;;14.13;73.28;99901.66;5100435;27;47095;-77
2023/10/22 03:02:16;;;;;;;;;1.00;1.00;;;;;14.10;72.95;99887.84;5100830;27;45220;-74
2023/10/22 03:04:42;;;;;;;;;1.50;0.25;;;;;14.23;73.12;99893.34;5100186;27;48061;-75
2023/10/22 03:07:07;;;;;;;;;2.00;1.25;;;;;14.09;72.93;99879.00;5100410;27;45326;-74
2023/10/22 03:09:32;;;;;;;;;3.00;1.00;;;;;14.16;73.02;99887.91;5100522;27;45286;-75
2023/10/22 03:11:58;;;;;;;;;3.00;0.50;;;;;14.27;72.48;99908.00;5100564;27;45464;-75
2023/10/22 03:14:23;;;;;;;;;2.50;1.50;;;;;14.08;72.94;99885.34;5100169;27;45662;-74
2023/10/22 03:16:48;;;;;;;;;1.50;1.50;;;;;14.27;72.89;99922.19;5081556;27;54004;-72
2023/10/22 03:19:14;;;;;;;;;2.00;1.00;;;;;14.02;73.23;99896.81;5100371;27;45364;-74
2023/10/22 03:21:39;;;;;;;;;2.25;1.75;;;;;14.18;73.06;99934.00;5099488;27;45331;-74
2023/10/22 03:24:07;;;;;;;;;1.00;1.00;;;;;14.13;73.13;99920.34;5100044;27;46866;-74
2023/10/22 03:26:33;;;;;;;;;0.25;0.25;;;;;14.15;73.37;99928.19;5099717;27;45303;-75
2023/10/22 03:28:58;;;;;;;;;1.25;1.25;;;;;14.19;73.24;99927.63;5100078;27;45261;-73
2023/10/22 03:31:24;;;;;;;;;1.50;1.50;;;;;14.16;73.34;99925.31;5100338;27;45335;-74
2023/10/22 03:33:49;;;;;;;;;1.75;1.75;;;;;13.96;73.37;99893.00;5099973;27;46541;-75
2023/10/22 03:36:15;;;;;;;;;3.00;1.75;;;;;14.09;74.07;99924.44;5099863;27;45414;-74
2023/10/22 03:38:41;;;;;;;;;2.25;1.00;;;;;14.04;74.41;99926.84;5099818;27;45427;-74
2023/10/22 03:41:06;;;;;;;;;1.00;1.00;;;;;14.02;75.25;99944.91;5100191;27;45273;-74
2023/10/22 03:43:34;;;;;;;;;0.75;0.25;;;;;14.04;75.25;99948.22;5099684;27;45765;-73
2023/10/22 03:46:01;;;;;;;;;1.25;1.25;;;;;13.98;75.01;99944.44;5099652;27;45438;-73
2023/10/22 03:48:27;;;;;;;;;1.50;1.50;;;;;14.04;75.17;99963.44;5099892;27;45386;-74
2023/10/22 03:50:53;;;;;;;;;3.00;2.00;;;;;13.98;75.50;99960.47;5081408;27;45347;-74
2023/10/22 03:53:19;;;;;;;;;1.25;1.25;;;;;13.99;75.25;99956.78;5099595;27;45614;-75
2023/10/22 03:55:44;;;;;;;;;3.00;1.75;;;;;13.82;75.29;99947.31;5099457;27;45203;-74
2023/10/22 03:58:10;;;;;;;;;0.25;0.25;;;;;13.68;75.36;99922.25;5099855;27;45279;-74
2023/10/22 04:00:35;;;;;;;;;4.25;1.25;;;;;13.77;75.53;99939.00;5099776;27;45272;-73
2023/10/22 04:03:01;;;;;;;;;2.00;0.00;;;;;14.00;75.42;99968.28;5081248;27;47711;-74
2023/10/22 04:05:26;;;;;;;;;1.50;1.50;;;;;14.06;75.24;99977.44;5099751;27;45485;-74
2023/10/22 04:07:52;;;;;;;;;2.25;1.00;;;;;13.97;75.25;99966.00;5099327;27;45367;-76
2023/10/22 04:10:17;;;;;;;;;2.00;2.00;;;;;14.09;74.57;99991.25;5099667;27;45449;-81
2023/10/22 04:12:43;;;;;;;;;0.75;0.75;;;;;14.06;74.83;99985.44;5080975;27;47664;-74
2023/10/22 04:15:09;;;;;;;;;3.00;1.00;;;;;14.05;75.10;99992.63;5099687;27;45371;-74
2023/10/22 04:17:34;;;;;;;;;2.75;1.75;;;;;14.00;75.08;100005.69;5081236;27;45364;-74
2023/10/22 04:20:00;;;;;;;;;0.00;0.00;;;;;14.03;75.44;100000.00;5099712;27;45403;-73
2023/10/22 04:22:26;;;;;;;;;2.25;1.00;;;;;13.59;75.37;99949.22;5099273;27;45612;-74
2023/10/22 04:24:52;;;;;;;;;3.75;2.50;;;;;13.97;75.54;100006.06;5080775;27;45289;-73
2023/10/22 04:27:17;;;;;;;;;3.75;1.00;;;;;14.03;75.19;100020.56;5098948;27;45353;-73
2023/10/22 04:29:46;;;;;;;;;2.00;1.00;;;;;13.96;74.99;100009.75;5099484;27;45552;-75
2023/10/22 04:32:11;;;;;;;;;3.50;0.25;;;;;13.69;74.82;99988.00;5099159;27;45863;-75
2023/10/22 04:34:36;;;;;;;;;3.50;2.00;;;;;13.94;75.00;100019.81;5098727;27;45309;-74
2023/10/22 04:37:04;;;;;;;;;2.25;1.00;;;;;13.80;74.83;100001.91;5099115;27;45453;-74
2023/10/22 04:39:30;;;;;;;;;2.25;1.00;;;;;13.90;74.94;100015.84;5098747;27;45358;-75
2023/10/22 04:41:55;;;;;;;;;2.50;1.00;;;;;13.84;74.90;100006.72;5098505;27;46354;-75
2023/10/22 04:44:21;;;;;;;;;2.50;1.00;;;;;13.96;74.53;100036.50;5098741;27;45322;-75
2023/10/22 04:46:47;;;;;;;;;4.75;1.00;;;;;13.81;74.62;100011.59;5099086;27;45271;-74
2023/10/22 04:49:13;;;;;;;;;0.50;0.50;;;;;13.57;74.66;99986.78;5098936;27;45584;-74
2023/10/22 04:51:39;;;;;;;;;3.00;3.00;;;;;13.91;74.39;100037.03;5098554;27;45851;-74
2023/10/22 04:54:04;;;;;;;;;4.00;1.50;;;;;14.00;74.24;100051.97;5098792;27;45283;-72
2023/10/22 04:56:30;;;;;;;;;3.25;2.00;;;;;13.98;74.35;100051.31;5080018;27;45864;-73
2023/10/22 04:58:55;;;;;;;;;4.00;2.00;;;;;13.96;74.53;100053.34;5080078;27;48623;-74
2023/10/22 05:01:20;;;;;;;;;2.25;1.25;;;;;13.85;74.53;100039.63;5079904;27;53254;-76
2023/10/22 05:03:46;;;;;;;;;4.00;3.00;;;;;13.89;74.64;100060.44;5098433;27;45461;-75
2023/10/22 05:06:11;;;;;;;;;6.25;2.00;;;;;13.79;74.63;100048.34;5098562;27;45523;-74
2023/10/22 05:08:38;;;;;;;;;5.00;0.50;;;;;13.49;74.39;100023.44;5080498;27;45605;-74
2023/10/22 05:11:05;;;;;;;;;4.25;1.50;;;;;13.78;74.84;100079.56;5098981;27;45667;-74
2023/10/22 05:13:31;;;;;;;;;5.00;3.00;;;;;13.79;74.83;100093.75;5080161;27;45351;-74
2023/10/22 05:15:57;;;;;;;;;2.75;0.00;;;;;13.81;74.84;100092.56;5079877;27;45419;-75
2023/10/22 05:18:22;;;;;;;;;4.00;1.75;;;;;13.85;74.28;100103.75;5080013;27;45534;-74
2023/10/22 05:20:48;;;;;;;;;3.50;1.50;;;;;13.54;74.69;100059.25;5098303;27;45214;-74
2023/10/22 05:23:14;;;;;;;;;1.00;1.00;;;;;13.83;74.68;100113.78;5079957;27;45347;-74
2023/10/22 05:25:40;;;;;;;;;1.00;1.00;;;;;13.78;74.57;100092.09;5097992;27;45509;-74
2023/10/22 05:28:05;;;;;;;;;3.75;1.00;;;;;13.80;74.59;100112.28;5098251;27;45583;-75
2023/10/22 05:30:31;;;;;;;;;1.25;1.25;;;;;13.67;74.43;100091.53;5079775;27;48506;-75
2023/10/22 05:32:57;;;;;;;;;1.25;1.25;;;;;13.75;74.84;100095.97;5080405;27;45678;-75
2023/10/22 05:35:22;;;;;;;;;1.00;1.00;;;;;13.85;74.72;100103.75;5098315;27;45516;-75
2023/10/22 05:37:49;;;;;;;;;2.00;2.00;;;;;13.81;74.51;100113.13;5098192;27;45303;-75
2023/10/22 05:40:15;;;;;;;;;1.75;1.00;;;;;13.82;74.83;100118.31;5097905;27;45888;-75
2023/10/22 05:42:41;;;;;;;;;2.25;1.00;;;;;13.74;74.73;100093.47;5097654;27;45430;-75
2023/10/22 05:45:06;;;;;;;;;4.25;1.00;;;;;13.90;74.35;100128.09;5097236;27;45325;-75
2023/10/22 05:47:32;;;;;;;;;1.00;1.00;;;;;13.76;74.49;100112.84;5098135;27;45426;-76
2023/10/22 05:50:01;;;;;;;;;1.50;1.25;;;;;13.81;74.41;100113.13;5079259;27;47316;-75
2023/10/22 05:52:28;;;;;;;;;2.75;1.50;;;;;13.88;74.17;100127.44;5097876;27;45413;-75
2023/10/22 05:54:54;;;;;;;;;3.50;2.50;;;;;13.96;73.98;100135.38;5097992;27;45672;-76
2023/10/22 05:57:21;;;;;;;;;0.00;0.00;;;;;13.80;74.01;100116.78;5097835;27;45274;-75
2023/10/22 05:59:47;;;;;;;;;1.50;1.00;;;;;13.90;74.06;100128.09;5097833;27;46642;-73
2023/10/22 06:02:12;;;;;;;;;2.00;2.00;;;;;13.78;74.00;100108.13;5079280;27;45455;-75
2023/10/22 06:04:37;;;;;;;;;4.50;2.50;;;;;14.00;74.25;100147.34;5097606;27;45284;-75
2023/10/22 06:07:04;;;;;;;;;2.50;1.50;;;;;13.99;74.02;100143.84;5097896;27;45288;-74
2023/10/22 06:09:29;;;;;;;;;2.50;1.25;;;;;13.92;74.23;100126.06;5097553;27;45937;-73
2023/10/22 06:11:55;;;;;;;;;3.25;1.75;;;;;13.85;74.19;100133.97;5097189;27;45301;-73
2023/10/22 06:14:20;;;;;;;;;1.25;1.00;;;;;13.83;74.41;100144.00;5097679;27;45969;-74
2023/10/22 06:16:45;;;;;;;;;1.00;1.00;;;;;13.97;74.55;100169.09;5098496;27;45593;-73
2023/10/22 06:19:13;;;;;;;;;2.00;0.50;;;;;13.93;74.41;100170.47;5078590;27;57623;-74
2023/10/22 06:21:38;;;;;;;;;1.50;0.00;;;;;13.97;74.48;100177.13;5079005;27;45395;-74
2023/10/22 06:24:03;;;;;;;;;1.00;1.00;;;;;13.80;74.54;100162.22;5097232;27;45245;-75
2023/10/22 06:26:31;;;;;;;;;2.50;2.00;;;;;13.94;74.85;100177.47;5097369;27;45229;-75
2023/10/22 06:28:56;;;;;;;;;3.75;2.00;;;;;13.97;74.42;100187.81;5096909;27;50513;-76
2023/10/22 06:31:28;;;;;;;;;0.75;0.50;;;;;13.86;74.68;100169.53;5097152;27;55299;-76
2023/10/22 06:33:53;;;;;;;;;1.50;0.25;;;;;13.92;74.80;100188.34;5097705;27;45359;-76
2023/10/22 06:36:21;;;;;;;;;4.25;2.75;;;;;13.87;74.59;100174.69;5097635;27;45312;-74
2023/10/22 06:38:49;;;;;;;;;4.75;2.50;;;;;13.98;75.09;100200.16;5078636;27;48190;-74
2023/10/22 06:41:17;;;;;;;;;1.00;1.00;;;;;13.99;74.63;100199.16;5096973;27;45247;-74
2023/10/22 06:43:43;;;;;;;;;2.00;1.00;;;;;13.98;74.39;100189.47;5097340;27;45374;-75
2023/10/22 06:46:09;;;;;;;;;6.50;2.50;;;;;13.90;74.53;100186.88;5097479;27;45521;-73
2023/10/22 06:48:34;;;;;;;;;2.50;1.75;;;;;13.96;74.56;100204.84;5097078;27;45622;-73
2023/10/22 06:51:00;;;;;;;;;3.00;0.00;;;;;13.96;74.65;100204.84;5078754;27;46132;-74
2023/10/22 06:53:25;;;;;;;;;1.75;1.75;;;;;13.98;74.53;100211.69;5078849;27;45348;-75
2023/10/22 06:55:50;;;;;;;;;2.50;2.50;;;;;14.06;74.43;100208.13;5079464;27;45494;-75
2023/10/22 06:58:16;;;;;;;;;1.00;1.00;;;;;14.15;74.23;100225.75;5100911;27;47080;-75
2023/10/22 07:00:42;;;;;;;;;3.00;2.00;;;;;14.11;74.54;100228.97;5101074;27;45241;-76
2023/10/22 07:03:07;;;;;;;;;1.00;1.00;;;;;14.00;74.52;100211.50;5100479;27;45581;-75
2023/10/22 07:05:33;;;;;;;;;2.25;0.25;;;;;13.94;74.43;100199.69;5082135;27;45210;-76
2023/10/22 07:07:58;;;;;;;;;1.50;1.50;;;;;14.25;74.12;100253.09;5081849;27;47285;-74
2023/10/22 07:10:23;;;;;;;;;1.00;1.00;;;;;14.30;73.85;100253.38;5100070;27;45282;-74
2023/10/22 07:12:50;;;;;;;;;3.50;0.50;;;;;14.18;73.65;100238.75;5100623;27;55023;-75
2023/10/22 07:15:15;;;;;;;;;1.00;1.00;;;;;14.18;74.10;100245.94;5082811;27;45209;-75
2023/10/22 07:17:40;;;;;;;;;1.25;1.25;;;;;14.28;73.96;100259.91;5100169;27;45863;-76
2023/10/22 07:20:06;;;;;;;;;3.00;0.75;;;;;14.44;73.69;100269.69;5100180;27;45411;-75
2023/10/22 07:22:32;;;;;;;;;0.25;0.00;;;;;14.36;73.59;100250.97;5100428;27;45336;-75
2023/10/22 07:24:57;;;;;;;;;1.50;1.50;;;;;14.24;73.17;100235.38;5100439;27;45326;-75
2023/10/22 07:27:23;;;;;;;;;2.00;2.00;;;;;14.42;73.06;100256.44;5099675;27;45486;-76
2023/10/22 07:29:48;;;;;;;;;0.50;0.50;;;;;14.51;73.18;100275.94;5100147;27;45316;-74
2023/10/22 07:32:14;;;;;;;;;1.50;0.00;;;;;14.57;72.94;100288.59;5100334;27;45862;-74
2023/10/22 07:34:39;;;;;;;;;0.50;0.00;;;;;14.48;73.31;100276.31;5100465;27;45564;-75
2023/10/22 07:37:05;;;;;;;;;2.00;0.25;;;;;14.61;73.10;100305.94;5099533;27;46506;-75
2023/10/22 07:39:30;;;;;;;;;2.00;1.25;;;;;14.30;72.57;100250.69;5099170;27;45476;-77
2023/10/22 07:41:55;;;;;;;;;4.75;1.00;;;;;14.42;73.07;100299.25;5105724;27;45519;-76
2023/10/22 07:44:24;;;;;;;;;0.00;0.00;;;;;14.34;73.02;100290.44;5112473;27;45342;-77
2023/10/22 07:46:49;;;;;;;;;4.75;2.50;;;;;14.42;72.95;100309.94;5099724;27;45624;-76
2023/10/22 07:49:15;;;;;;;;;2.75;0.25;;;;;14.24;73.00;100280.84;5099390;27;45268;-77
2023/10/22 07:51:40;;;;;;;;;0.50;0.50;;;;;14.50;72.99;100322.44;5110193;27;45513;-78
2023/10/22 07:54:05;;;;;;;;;4.00;1.00;;;;;14.30;73.03;100296.16;5114682;27;45490;-74
2023/10/22 07:56:31;;;;;;;;;3.00;2.00;;;;;14.46;73.09;100321.16;5099404;27;46670;-74
2023/10/22 07:58:56;;;;;;;;;5.00;1.75;;;;;14.41;72.96;100320.78;5099214;27;45506;-76
2023/10/22 08:01:23;;;;;;;;;2.00;1.25;;;;;14.44;72.99;100344.56;5107653;27;45202;-76
2023/10/22 08:03:50;;;;;;;;;1.00;1.00;;;;;14.42;73.31;100331.34;5100050;27;45394;-76
2023/10/22 08:06:16;;;;;;;;;3.25;2.25;;;;;14.46;72.98;100347.88;5099870;27;45706;-76
2023/10/22 08:08:41;;;;;;;;;4.25;2.25;;;;;14.45;73.18;100341.72;5115149;27;45398;-75
2023/10/22 08:11:06;;;;;;;;;3.25;1.75;;;;;14.20;72.86;100286.69;5119709;27;45295;-76
2023/10/22 08:13:32;;;;;;;;;2.25;2.25;;;;;14.57;72.57;100323.38;5107362;27;45575;-75
2023/10/22 08:16:01;;;;;;;;;3.50;2.25;;;;;14.64;72.59;100334.22;5080904;27;45752;-74
2023/10/22 08:18:27;;;;;;;;;3.00;1.50;;;;;14.76;72.07;100344.28;5099121;27;45247;-76
2023/10/22 08:20:52;;;;;;;;;1.50;1.50;;;;;14.68;72.19;100314.94;5091162;27;56451;-72
2023/10/22 08:23:17;;;;;;;;;1.00;1.00;;;;;14.95;72.26;100345.63;5119873;27;45393;-73
2023/10/22 08:25:52;;;;;;;;;3.00;2.75;;;;;15.07;72.40;100349.53;5119276;27;47243;-75
2023/10/22 08:28:18;;;;;;;;;2.75;1.25;;;;;15.20;71.79;100354.22;5119542;27;45311;-72
2023/10/22 08:30:45;;;;;;;;;1.00;1.00;;;;;15.20;71.90;100354.22;5104817;27;45469;-73
2023/10/22 08:33:10;;;;;;;;;2.25;1.25;;;;;15.34;71.86;100353.41;5099031;27;45326;-72
2023/10/22 08:35:35;;;;;;;;;2.75;1.75;;;;;15.50;71.60;100361.28;5116055;27;67567;-72
2023/10/22 08:38:01;;;;;;;;;3.50;1.00;;;;;15.44;71.27;100374.59;5119147;27;45373;-72
2023/10/22 08:40:27;;;;;;;;;3.50;1.25;;;;;15.56;71.35;100386.47;5105564;27;45373;-72
2023/10/22 08:42:56;;;;;;;;;2.75;0.25;;;;;15.52;71.67;100363.75;5113023;27;45309;-71
2023/10/22 08:45:22;;;;;;;;;3.00;1.00;;;;;15.57;70.87;100372.06;5106755;27;45655;-72
2023/10/22 08:47:48;;;;;;;;;0.75;0.75;;;;;15.58;71.03;100381.75;5118650;27;45410;-71
2023/10/22 08:50:16;;;;;;;;;2.50;1.00;;;;;15.62;71.00;100387.66;5112347;27;45326;-71
2023/10/22 08:52:41;;;;;;;;;2.50;2.50;;;;;15.41;71.20;100358.84;5098864;27;45356;-72
2023/10/22 08:55:07;;;;;;;;;2.00;2.00;;;;;15.69;70.73;100400.09;5098348;27;45691;-72
2023/10/22 08:57:33;;;;;;;;;1.25;1.25;;;;;15.70;70.27;100403.63;5097724;27;45324;-76
2023/10/22 08:59:59;;;;;;;;;1.00;1.00;;;;;15.66;70.63;100403.16;5102685;27;45469;-73
2023/10/22 09:02:28;;;;;;;;;2.50;1.00;;;;;15.42;70.77;100384.66;5101565;27;45536;-74
2023/10/22 09:04:55;;;;;;;;;2.75;2.75;;;;;15.59;70.87;100420.16;5106424;27;46533;-72
2023/10/22 09:07:53;;;;;;;;;3.50;3.00;;;;;15.51;70.61;100419.19;5113493;27;45277;-74
2023/10/22 09:10:28;;;;;;;;;1.00;1.00;;;;;15.47;70.63;100415.22;5108017;27;45825;-87
2023/10/22 09:12:54;;;;;;;;;2.00;2.00;;;;;15.46;70.60;100418.94;5116291;27;45185;-71
2023/10/22 09:15:19;;;;;;;;;1.00;1.00;;;;;15.56;70.36;100420.47;5098361;27;45462;-70
2023/10/22 09:17:45;;;;;;;;;1.00;1.00;;;;;15.54;70.44;100420.66;5099687;27;45470;-76
2023/10/22 09:20:21;;;;;;;;;1.25;1.00;;;;;15.52;70.10;100412.81;5089425;27;45274;-78
2023/10/22 09:22:46;;;;;;;;;2.50;1.50;;;;;15.76;70.00;100435.03;5086975;27;45390;-70
2023/10/22 09:25:12;;;;;;;;;1.00;1.00;;;;;15.61;70.25;100399.34;5105916;27;45638;-70
2023/10/22 09:27:39;;;;;;;;;2.50;1.25;;;;;15.96;69.63;100437.97;5117787;27;45375;-70
2023/10/22 09:30:05;;;;;;;;;5.50;5.00;;;;;15.92;68.78;100408.03;5099920;27;45565;-74
2023/10/22 09:32:31;;;;;;;;;0.00;0.00;;;;;16.10;68.59;100437.97;5118712;27;45240;-73
2023/10/22 09:35:11;;;;;;;;;0.50;0.50;;;;;16.11;68.00;100428.91;5111955;27;46257;-71
2023/10/22 09:37:50;;;;;;;;;1.75;1.25;;;;;16.01;67.84;100406.91;5097439;27;45469;-70
2023/10/22 09:40:22;;;;;;;;;1.25;1.25;;;;;16.17;66.95;100418.44;5102019;27;45458;-71
2023/10/22 09:42:51;;;;;;;;;1.00;1.00;;;;;16.15;66.78;100396.34;5118342;27;45535;-72
2023/10/22 09:45:22;;;;;;;;;1.25;1.25;;;;;16.30;66.04;100407.88;5117678;27;45545;-71
2023/10/22 09:47:50;;;;;;;;;0.25;0.25;;;;;16.35;66.15;100405.44;5118078;27;45401;-77
2023/10/22 09:50:19;;;;;;;;;6.25;1.50;;;;;16.36;66.02;100401.72;5118339;27;45596;-71
2023/10/22 09:52:44;;;;;;;;;2.75;0.50;;;;;16.65;65.73;100433.84;5111924;27;45503;-71
2023/10/22 09:55:13;;;;;;;;;2.00;1.75;;;;;16.68;65.21;100428.13;5114983;27;45593;-72
2023/10/22 09:57:40;;;;;;;;;1.00;1.00;;;;;16.57;64.78;100414.34;5100110;27;46324;-71
2023/10/22 10:00:12;;;;;;;;;1.00;1.00;;;;;16.77;65.31;100436.88;5097913;27;45370;-69
2023/10/22 10:02:39;;;;;;;;;1.50;1.50;;;;;16.89;64.39;100445.25;5118396;27;45395;-72
2023/10/22 10:05:06;;;;;;;;;0.50;0.25;;;;;16.59;64.54;100393.50;5117615;27;46981;-70
2023/10/22 10:07:31;;;;;;;;;0.00;0.00;;;;;16.90;63.48;100436.19;5099080;27;46421;-70
2023/10/22 10:09:58;;;;;;;;;3.00;3.00;;;;;16.86;63.40;100434.91;5118153;27;45555;-70
2023/10/22 10:12:28;;;;;;;;;3.00;2.00;;;;;16.97;63.21;100458.53;5117757;27;45443;-69
2023/10/22 10:14:53;;;;;;;;;2.50;1.00;;;;;16.97;62.73;100445.94;5117303;27;45817;-72
2023/10/22 10:17:19;;;;;;;;;3.00;3.00;;;;;17.01;63.17;100462.50;5099844;27;45409;-69
2023/10/22 10:19:47;;;;;;;;;1.00;0.00;;;;;17.06;63.44;100456.56;5097229;27;45538;-70
2023/10/22 10:22:39;;;;;;;;;0.00;0.00;;;;;17.16;62.88;100463.25;5101899;27;45768;-76
2023/10/22 10:25:31;;;;;;;;;1.00;1.00;;;;;17.22;62.27;100461.66;5090710;27;46476;-70
2023/10/22 10:28:03;;;;;;;;;2.00;2.00;;;;;16.79;61.85;100405.28;5101444;27;45259;-70
2023/10/22 10:30:29;;;;;;;;;2.25;1.00;;;;;17.21;61.46;100468.88;5101620;27;45508;-72
2023/10/22 10:32:54;;;;;;;;;1.50;1.50;;;;;17.25;60.62;100467.50;5101927;27;45327;-73
2023/10/22 10:35:20;;;;;;;;;2.00;1.00;;;;;17.06;60.76;100438.59;5081662;27;69099;-70
2023/10/22 10:38:22;;;;;;;;;0.75;0.75;;;;;17.42;60.74;100472.56;5092503;27;45546;-72
2023/10/22 10:40:48;;;;;;;;;2.00;1.00;;;;;17.44;59.24;100467.84;5037146;28;45522;-71
2023/10/22 10:43:14;;;;;;;;;1.00;1.00;;;;;17.37;59.04;100461.56;5087769;27;45434;-72
2023/10/22 10:46:17;;;;;;;;;1.00;1.00;;;;;17.41;59.02;100468.22;5100188;27;46400;-71
2023/10/22 10:48:48;;;;;;;;;3.00;2.25;;;;;17.25;58.42;100477.41;5089250;27;45466;-72
2023/10/22 10:51:21;;;;;;;;;1.00;1.00;;;;;16.56;58.38;100392.03;5103299;27;45310;-72
2023/10/22 10:54:07;;;;;;;;;0.00;0.00;;;;;16.94;58.77;100475.03;5115373;27;45514;-72
2023/10/22 10:56:55;;;;;;;;;1.00;0.00;;;;;16.81;58.60;100477.59;5105533;27;46009;-72
2023/10/22 10:59:32;;;;;;;;;1.00;1.00;;;;;16.79;59.31;100476.94;5101399;27;45323;-75
2023/10/22 11:02:06;;;;;;;;;2.00;1.00;;;;;16.79;58.76;100480.47;5082265;27;45509;-72
2023/10/22 11:04:37;;;;;;;;;1.00;1.00;;;;;16.81;59.20;100472.22;5100349;27;45302;-72
2023/10/22 11:07:03;;;;;;;;;3.25;1.00;;;;;16.80;59.01;100473.25;5099843;27;46076;-71
2023/10/22 11:09:31;;;;;;;;;4.25;1.75;;;;;16.74;58.93;100458.75;5100196;27;45564;-73
2023/10/22 11:12:04;;;;;;;;;3.00;1.00;;;;;16.69;59.11;100451.25;5081905;27;45363;-71
2023/10/22 11:14:31;;;;;;;;;1.00;1.00;;;;;16.94;58.98;100469.69;5100408;27;45323;-73
2023/10/22 11:16:57;;;;;;;;;1.00;1.00;;;;;16.92;57.45;100471.72;5099704;27;45731;-72
2023/10/22 11:19:24;;;;;;;;;0.50;0.25;;;;;16.93;56.60;100460.78;5099860;27;45343;-72
2023/10/22 11:21:52;;;;;;;;;2.25;2.25;;;;;16.89;56.33;100447.94;5100128;27;45265;-73
2023/10/22 11:24:19;;;;;;;;;2.00;0.00;;;;;17.00;56.34;100466.22;5100274;27;45447;-72
2023/10/22 11:26:47;;;;;;;;;1.75;1.75;;;;;17.02;56.45;100473.09;5099219;27;46494;-72
2023/10/22 11:29:12;;;;;;;;;0.75;0.75;;;;;17.04;55.22;100464.81;5099761;27;45310;-72